sensor_id;sensor_type;location;lat;lon;timestamp;P1;durP1;ratioP1;P2;durP2;ratioP2
2848;SDS011;59355;52.416;13.412;2023-04-30T00:02:06;5.50;;;3.50;;
2848;SDS011;59355;52.416;13.412;2023-04-30T00:04:32;8.43;;;4.10;;
2848;SDS011;59355;52.416;13.412;2023-04-30T00:06:57;10.90;;;3.93;;
2848;SDS011;59355;52.416;13.412;2023-04-30T00:09:22;5.03;;;3.17;;
2848;SDS011;59355;52.416;13.412;2023-04-30T00:11:48;5.17;;;3.17;;
2848;SDS011;59355;52.416;13.412;2023-04-30T00:14:13;4.03;;;3.00;;
2848;SDS011;59355;52.416;13.412;2023-04-30T00:16:38;5.53;;;3.30;;
2848;SDS011;59355;52.416;13.412;2023-04-30T00:19:04;9.13;;;2.93;;
2848;SDS011;59355;52.416;13.412;2023-04-30T00:21:29;6.90;;;3.30;;
2848;SDS011;59355;52.416;13.412;2023-04-30T00:23:55;6.90;;;3.57;;
2848;SDS011;59355;52.416;13.412;2023-04-30T00:26:20;5.47;;;3.23;;
2848;SDS011;59355;52.416;13.412;2023-04-30T00:28:45;5.90;;;3.50;;
2848;SDS011;59355;52.416;13.412;2023-04-30T00:31:11;4.70;;;2.87;;
2848;SDS011;59355;52.416;13.412;2023-04-30T00:33:36;5.53;;;2.87;;
2848;SDS011;59355;52.416;13.412;2023-04-30T00:36:01;4.17;;;2.90;;
2848;SDS011;59355;52.416;13.412;2023-04-30T00:38:27;4.90;;;2.83;;
2848;SDS011;59355;52.416;13.412;2023-04-30T00:40:52;9.93;;;3.70;;
2848;SDS011;59355;52.416;13.412;2023-04-30T00:43:17;7.07;;;3.40;;
2848;SDS011;59355;52.416;13.412;2023-04-30T00:45:43;6.83;;;3.00;;
2848;SDS011;59355;52.416;13.412;2023-04-30T00:48:08;5.93;;;3.20;;
2848;SDS011;59355;52.416;13.412;2023-04-30T00:50:34;7.03;;;3.07;;
2848;SDS011;59355;52.416;13.412;2023-04-30T00:53:00;8.50;;;3.00;;
2848;SDS011;59355;52.416;13.412;2023-04-30T00:55:26;4.97;;;3.40;;
2848;SDS011;59355;52.416;13.412;2023-04-30T00:57:51;10.83;;;4.20;;
2848;SDS011;59355;52.416;13.412;2023-04-30T01:00:17;5.77;;;3.37;;
2848;SDS011;59355;52.416;13.412;2023-04-30T01:02:43;8.37;;;3.30;;
2848;SDS011;59355;52.416;13.412;2023-04-30T01:05:08;6.37;;;2.53;;
2848;SDS011;59355;52.416;13.412;2023-04-30T01:07:34;10.33;;;3.00;;
2848;SDS011;59355;52.416;13.412;2023-04-30T01:10:00;6.33;;;2.70;;
2848;SDS011;59355;52.416;13.412;2023-04-30T01:20:08;4.77;;;2.80;;
2848;SDS011;59355;52.416;13.412;2023-04-30T01:22:36;8.23;;;3.40;;
2848;SDS011;59355;52.416;13.412;2023-04-30T01:28:02;7.03;;;3.70;;
2848;SDS011;59355;52.416;13.412;2023-04-30T01:30:30;5.80;;;3.10;;
2848;SDS011;59355;52.416;13.412;2023-04-30T01:32:55;5.57;;;3.70;;
2848;SDS011;59355;52.416;13.412;2023-04-30T01:35:22;6.23;;;3.70;;
2848;SDS011;59355;52.416;13.412;2023-04-30T01:37:59;9.10;;;4.43;;
2848;SDS011;59355;52.416;13.412;2023-04-30T01:40:30;10.77;;;4.20;;
2848;SDS011;59355;52.416;13.412;2023-04-30T01:43:04;6.63;;;3.73;;
2848;SDS011;59355;52.416;13.412;2023-04-30T01:45:39;11.90;;;3.50;;
2848;SDS011;59355;52.416;13.412;2023-04-30T01:48:11;9.10;;;4.67;;
2848;SDS011;59355;52.416;13.412;2023-04-30T01:50:51;10.03;;;4.17;;
2848;SDS011;59355;52.416;13.412;2023-04-30T01:53:20;5.23;;;3.67;;
2848;SDS011;59355;52.416;13.412;2023-04-30T01:55:48;8.27;;;4.07;;
2848;SDS011;59355;52.416;13.412;2023-04-30T01:58:16;6.30;;;4.20;;
2848;SDS011;59355;52.416;13.412;2023-04-30T02:00:42;9.37;;;3.90;;
2848;SDS011;59355;52.416;13.412;2023-04-30T02:03:07;7.10;;;3.87;;
2848;SDS011;59355;52.416;13.412;2023-04-30T02:05:32;11.03;;;4.37;;
2848;SDS011;59355;52.416;13.412;2023-04-30T02:07:58;12.33;;;3.87;;
2848;SDS011;59355;52.416;13.412;2023-04-30T02:10:23;8.97;;;4.33;;
2848;SDS011;59355;52.416;13.412;2023-04-30T02:12:50;7.10;;;3.77;;
2848;SDS011;59355;52.416;13.412;2023-04-30T02:15:16;6.70;;;3.80;;
2848;SDS011;59355;52.416;13.412;2023-04-30T02:17:41;12.33;;;4.77;;
2848;SDS011;59355;52.416;13.412;2023-04-30T02:20:07;9.30;;;5.10;;
2848;SDS011;59355;52.416;13.412;2023-04-30T02:22:33;5.30;;;4.40;;
2848;SDS011;59355;52.416;13.412;2023-04-30T02:24:58;7.20;;;4.00;;
2848;SDS011;59355;52.416;13.412;2023-04-30T02:27:24;5.80;;;3.40;;
2848;SDS011;59355;52.416;13.412;2023-04-30T02:29:50;5.60;;;4.70;;
2848;SDS011;59355;52.416;13.412;2023-04-30T02:32:15;8.77;;;4.47;;
2848;SDS011;59355;52.416;13.412;2023-04-30T02:34:40;8.00;;;4.40;;
2848;SDS011;59355;52.416;13.412;2023-04-30T02:37:06;6.80;;;4.60;;
2848;SDS011;59355;52.416;13.412;2023-04-30T02:39:32;5.60;;;4.30;;
2848;SDS011;59355;52.416;13.412;2023-04-30T02:41:57;12.77;;;4.83;;
2848;SDS011;59355;52.416;13.412;2023-04-30T02:44:22;6.90;;;4.07;;
2848;SDS011;59355;52.416;13.412;2023-04-30T02:46:48;8.00;;;4.53;;
2848;SDS011;59355;52.416;13.412;2023-04-30T02:49:13;7.43;;;4.27;;
2848;SDS011;59355;52.416;13.412;2023-04-30T02:51:38;8.47;;;4.03;;
2848;SDS011;59355;52.416;13.412;2023-04-30T02:54:04;7.83;;;3.50;;
2848;SDS011;59355;52.416;13.412;2023-04-30T02:56:29;10.20;;;4.13;;
2848;SDS011;59355;52.416;13.412;2023-04-30T02:58:54;5.73;;;3.37;;
2848;SDS011;59355;52.416;13.412;2023-04-30T03:01:20;4.60;;;3.53;;
2848;SDS011;59355;52.416;13.412;2023-04-30T03:03:45;7.33;;;4.23;;
2848;SDS011;59355;52.416;13.412;2023-04-30T03:06:10;6.50;;;4.07;;
2848;SDS011;59355;52.416;13.412;2023-04-30T03:08:36;5.97;;;3.77;;
2848;SDS011;59355;52.416;13.412;2023-04-30T03:11:01;8.33;;;4.57;;
2848;SDS011;59355;52.416;13.412;2023-04-30T03:13:26;7.60;;;4.73;;
2848;SDS011;59355;52.416;13.412;2023-04-30T03:15:55;8.53;;;3.87;;
2848;SDS011;59355;52.416;13.412;2023-04-30T03:18:30;7.70;;;4.53;;
2848;SDS011;59355;52.416;13.412;2023-04-30T03:20:56;7.07;;;5.03;;
2848;SDS011;59355;52.416;13.412;2023-04-30T03:23:21;10.27;;;5.23;;
2848;SDS011;59355;52.416;13.412;2023-04-30T03:25:47;7.57;;;4.03;;
2848;SDS011;59355;52.416;13.412;2023-04-30T03:28:12;11.33;;;4.60;;
2848;SDS011;59355;52.416;13.412;2023-04-30T03:30:38;7.17;;;4.67;;
2848;SDS011;59355;52.416;13.412;2023-04-30T03:33:03;6.40;;;4.17;;
2848;SDS011;59355;52.416;13.412;2023-04-30T03:35:30;9.40;;;4.50;;
2848;SDS011;59355;52.416;13.412;2023-04-30T03:37:56;9.37;;;4.87;;
2848;SDS011;59355;52.416;13.412;2023-04-30T03:40:21;5.00;;;4.13;;
2848;SDS011;59355;52.416;13.412;2023-04-30T03:42:46;8.33;;;5.13;;
2848;SDS011;59355;52.416;13.412;2023-04-30T03:45:12;13.83;;;6.03;;
2848;SDS011;59355;52.416;13.412;2023-04-30T03:47:37;6.47;;;4.33;;
2848;SDS011;59355;52.416;13.412;2023-04-30T03:50:02;7.17;;;4.70;;
2848;SDS011;59355;52.416;13.412;2023-04-30T03:52:28;7.50;;;5.10;;
2848;SDS011;59355;52.416;13.412;2023-04-30T03:54:55;6.30;;;4.70;;
2848;SDS011;59355;52.416;13.412;2023-04-30T03:57:20;6.60;;;5.00;;
2848;SDS011;59355;52.416;13.412;2023-04-30T03:59:46;7.20;;;5.10;;
2848;SDS011;59355;52.416;13.412;2023-04-30T04:02:11;6.03;;;4.90;;
2848;SDS011;59355;52.416;13.412;2023-04-30T04:04:37;10.47;;;5.33;;
2848;SDS011;59355;52.416;13.412;2023-04-30T04:07:02;7.00;;;5.50;;
2848;SDS011;59355;52.416;13.412;2023-04-30T04:09:27;9.83;;;5.57;;
2848;SDS011;59355;52.416;13.412;2023-04-30T04:11:53;5.30;;;4.80;;
2848;SDS011;59355;52.416;13.412;2023-04-30T04:14:18;9.80;;;5.77;;
2848;SDS011;59355;52.416;13.412;2023-04-30T04:16:43;8.90;;;5.73;;
2848;SDS011;59355;52.416;13.412;2023-04-30T04:19:09;8.20;;;5.23;;
2848;SDS011;59355;52.416;13.412;2023-04-30T04:21:35;8.87;;;5.10;;
2848;SDS011;59355;52.416;13.412;2023-04-30T04:24:00;10.27;;;6.10;;
2848;SDS011;59355;52.416;13.412;2023-04-30T04:26:32;12.03;;;5.70;;
2848;SDS011;59355;52.416;13.412;2023-04-30T04:28:57;8.43;;;5.40;;
2848;SDS011;59355;52.416;13.412;2023-04-30T04:31:22;6.53;;;4.90;;
2848;SDS011;59355;52.416;13.412;2023-04-30T04:33:48;9.33;;;5.27;;
2848;SDS011;59355;52.416;13.412;2023-04-30T04:36:13;7.90;;;4.97;;
2848;SDS011;59355;52.416;13.412;2023-04-30T04:38:40;5.57;;;4.70;;
2848;SDS011;59355;52.416;13.412;2023-04-30T04:41:05;9.30;;;5.23;;
2848;SDS011;59355;52.416;13.412;2023-04-30T04:43:31;7.27;;;5.00;;
2848;SDS011;59355;52.416;13.412;2023-04-30T04:45:56;10.50;;;5.17;;
2848;SDS011;59355;52.416;13.412;2023-04-30T04:48:21;7.90;;;5.23;;
2848;SDS011;59355;52.416;13.412;2023-04-30T04:50:47;8.60;;;5.67;;
2848;SDS011;59355;52.416;13.412;2023-04-30T04:53:12;8.43;;;5.00;;
2848;SDS011;59355;52.416;13.412;2023-04-30T04:55:38;6.97;;;4.53;;
2848;SDS011;59355;52.416;13.412;2023-04-30T04:58:03;9.13;;;5.27;;
2848;SDS011;59355;52.416;13.412;2023-04-30T05:00:28;8.13;;;4.93;;
2848;SDS011;59355;52.416;13.412;2023-04-30T05:02:54;7.57;;;5.37;;
2848;SDS011;59355;52.416;13.412;2023-04-30T05:05:19;8.80;;;5.10;;
2848;SDS011;59355;52.416;13.412;2023-04-30T05:07:44;11.80;;;5.40;;
2848;SDS011;59355;52.416;13.412;2023-04-30T05:10:10;10.20;;;5.37;;
2848;SDS011;59355;52.416;13.412;2023-04-30T05:12:35;9.23;;;5.50;;
2848;SDS011;59355;52.416;13.412;2023-04-30T05:15:00;10.70;;;5.80;;
2848;SDS011;59355;52.416;13.412;2023-04-30T05:17:26;10.93;;;5.20;;
2848;SDS011;59355;52.416;13.412;2023-04-30T05:19:51;9.97;;;5.30;;
2848;SDS011;59355;52.416;13.412;2023-04-30T05:22:17;9.77;;;5.60;;
2848;SDS011;59355;52.416;13.412;2023-04-30T05:24:42;9.13;;;5.03;;
2848;SDS011;59355;52.416;13.412;2023-04-30T05:27:07;6.87;;;5.90;;
2848;SDS011;59355;52.416;13.412;2023-04-30T05:29:33;7.00;;;5.73;;
2848;SDS011;59355;52.416;13.412;2023-04-30T05:31:58;10.60;;;5.53;;
2848;SDS011;59355;52.416;13.412;2023-04-30T05:34:24;7.07;;;5.40;;
2848;SDS011;59355;52.416;13.412;2023-04-30T05:36:49;5.83;;;5.23;;
2848;SDS011;59355;52.416;13.412;2023-04-30T05:39:14;9.97;;;5.50;;
2848;SDS011;59355;52.416;13.412;2023-04-30T05:41:40;8.20;;;5.57;;
2848;SDS011;59355;52.416;13.412;2023-04-30T05:44:05;8.60;;;5.50;;
2848;SDS011;59355;52.416;13.412;2023-04-30T05:46:31;8.07;;;5.23;;
2848;SDS011;59355;52.416;13.412;2023-04-30T05:48:56;7.40;;;5.30;;
2848;SDS011;59355;52.416;13.412;2023-04-30T05:51:21;6.43;;;5.20;;
2848;SDS011;59355;52.416;13.412;2023-04-30T05:53:47;14.03;;;6.20;;
2848;SDS011;59355;52.416;13.412;2023-04-30T05:56:12;7.00;;;5.53;;
2848;SDS011;59355;52.416;13.412;2023-04-30T05:58:38;8.87;;;4.93;;
2848;SDS011;59355;52.416;13.412;2023-04-30T06:01:03;7.53;;;5.33;;
2848;SDS011;59355;52.416;13.412;2023-04-30T06:03:29;9.57;;;4.83;;
2848;SDS011;59355;52.416;13.412;2023-04-30T06:05:55;10.47;;;5.63;;
2848;SDS011;59355;52.416;13.412;2023-04-30T06:08:20;9.53;;;4.90;;
2848;SDS011;59355;52.416;13.412;2023-04-30T06:10:45;14.80;;;5.60;;
2848;SDS011;59355;52.416;13.412;2023-04-30T06:13:11;8.27;;;4.90;;
2848;SDS011;59355;52.416;13.412;2023-04-30T06:15:36;6.70;;;4.87;;
2848;SDS011;59355;52.416;13.412;2023-04-30T06:18:02;9.10;;;5.37;;
2848;SDS011;59355;52.416;13.412;2023-04-30T06:20:27;8.53;;;5.30;;
2848;SDS011;59355;52.416;13.412;2023-04-30T06:22:52;5.87;;;4.40;;
2848;SDS011;59355;52.416;13.412;2023-04-30T06:25:18;8.40;;;4.37;;
2848;SDS011;59355;52.416;13.412;2023-04-30T06:27:44;6.83;;;5.33;;
2848;SDS011;59355;52.416;13.412;2023-04-30T06:30:10;11.67;;;5.70;;
2848;SDS011;59355;52.416;13.412;2023-04-30T06:32:35;6.77;;;4.67;;
2848;SDS011;59355;52.416;13.412;2023-04-30T06:35:01;13.90;;;5.23;;
2848;SDS011;59355;52.416;13.412;2023-04-30T06:37:26;9.37;;;5.67;;
2848;SDS011;59355;52.416;13.412;2023-04-30T06:39:51;9.47;;;5.07;;
2848;SDS011;59355;52.416;13.412;2023-04-30T06:42:17;9.87;;;5.33;;
2848;SDS011;59355;52.416;13.412;2023-04-30T06:44:42;16.53;;;5.83;;
2848;SDS011;59355;52.416;13.412;2023-04-30T06:47:07;7.93;;;4.97;;
2848;SDS011;59355;52.416;13.412;2023-04-30T06:49:33;9.03;;;4.80;;
2848;SDS011;59355;52.416;13.412;2023-04-30T06:51:58;9.87;;;4.60;;
2848;SDS011;59355;52.416;13.412;2023-04-30T06:54:24;11.60;;;5.30;;
2848;SDS011;59355;52.416;13.412;2023-04-30T06:56:50;12.20;;;5.70;;
2848;SDS011;59355;52.416;13.412;2023-04-30T06:59:16;16.53;;;4.90;;
2848;SDS011;59355;52.416;13.412;2023-04-30T07:01:41;12.47;;;5.30;;
2848;SDS011;59355;52.416;13.412;2023-04-30T07:04:07;10.43;;;4.93;;
2848;SDS011;59355;52.416;13.412;2023-04-30T07:06:32;7.83;;;5.13;;
2848;SDS011;59355;52.416;13.412;2023-04-30T07:08:57;8.13;;;5.87;;
2848;SDS011;59355;52.416;13.412;2023-04-30T07:11:23;7.13;;;5.17;;
2848;SDS011;59355;52.416;13.412;2023-04-30T07:13:48;9.50;;;4.87;;
2848;SDS011;59355;52.416;13.412;2023-04-30T07:16:13;12.10;;;5.23;;
2848;SDS011;59355;52.416;13.412;2023-04-30T07:18:40;11.80;;;5.33;;
2848;SDS011;59355;52.416;13.412;2023-04-30T07:21:06;10.27;;;5.30;;
2848;SDS011;59355;52.416;13.412;2023-04-30T07:23:32;7.80;;;4.60;;
2848;SDS011;59355;52.416;13.412;2023-04-30T07:25:57;8.03;;;5.57;;
2848;SDS011;59355;52.416;13.412;2023-04-30T07:28:23;8.97;;;5.50;;
2848;SDS011;59355;52.416;13.412;2023-04-30T07:30:48;8.57;;;4.63;;
2848;SDS011;59355;52.416;13.412;2023-04-30T07:33:13;11.33;;;5.37;;
2848;SDS011;59355;52.416;13.412;2023-04-30T07:35:39;8.93;;;4.83;;
2848;SDS011;59355;52.416;13.412;2023-04-30T07:38:04;10.80;;;5.30;;
2848;SDS011;59355;52.416;13.412;2023-04-30T07:40:29;6.53;;;4.90;;
2848;SDS011;59355;52.416;13.412;2023-04-30T07:42:55;10.53;;;5.80;;
2848;SDS011;59355;52.416;13.412;2023-04-30T07:45:20;8.53;;;5.80;;
2848;SDS011;59355;52.416;13.412;2023-04-30T07:47:45;9.80;;;5.17;;
2848;SDS011;59355;52.416;13.412;2023-04-30T07:50:11;9.50;;;5.33;;
2848;SDS011;59355;52.416;13.412;2023-04-30T07:52:38;7.90;;;5.17;;
2848;SDS011;59355;52.416;13.412;2023-04-30T07:55:04;8.43;;;5.30;;
2848;SDS011;59355;52.416;13.412;2023-04-30T07:57:29;9.47;;;4.73;;
2848;SDS011;59355;52.416;13.412;2023-04-30T07:59:55;7.23;;;5.20;;
2848;SDS011;59355;52.416;13.412;2023-04-30T08:02:21;5.70;;;4.67;;
2848;SDS011;59355;52.416;13.412;2023-04-30T08:04:46;8.33;;;4.57;;
2848;SDS011;59355;52.416;13.412;2023-04-30T08:07:12;9.20;;;4.73;;
2848;SDS011;59355;52.416;13.412;2023-04-30T08:09:39;6.50;;;4.03;;
2848;SDS011;59355;52.416;13.412;2023-04-30T08:12:05;6.13;;;3.97;;
2848;SDS011;59355;52.416;13.412;2023-04-30T08:14:30;8.43;;;3.73;;
2848;SDS011;59355;52.416;13.412;2023-04-30T08:16:56;7.00;;;3.83;;
2848;SDS011;59355;52.416;13.412;2023-04-30T08:19:23;9.23;;;5.17;;
2848;SDS011;59355;52.416;13.412;2023-04-30T08:21:48;8.27;;;4.10;;
2848;SDS011;59355;52.416;13.412;2023-04-30T08:24:14;5.43;;;3.73;;
2848;SDS011;59355;52.416;13.412;2023-04-30T08:26:39;6.27;;;4.03;;
2848;SDS011;59355;52.416;13.412;2023-04-30T08:29:04;4.23;;;3.67;;
2848;SDS011;59355;52.416;13.412;2023-04-30T08:31:32;7.53;;;3.77;;
2848;SDS011;59355;52.416;13.412;2023-04-30T08:33:58;4.77;;;3.77;;
2848;SDS011;59355;52.416;13.412;2023-04-30T08:36:23;9.20;;;3.87;;
2848;SDS011;59355;52.416;13.412;2023-04-30T08:38:48;10.00;;;3.90;;
2848;SDS011;59355;52.416;13.412;2023-04-30T08:41:14;5.20;;;3.63;;
2848;SDS011;59355;52.416;13.412;2023-04-30T08:43:42;4.30;;;3.10;;
2848;SDS011;59355;52.416;13.412;2023-04-30T08:46:08;7.00;;;3.83;;
2848;SDS011;59355;52.416;13.412;2023-04-30T08:48:36;6.60;;;3.60;;
2848;SDS011;59355;52.416;13.412;2023-04-30T08:51:02;7.97;;;3.50;;
2848;SDS011;59355;52.416;13.412;2023-04-30T08:53:28;7.13;;;3.90;;
2848;SDS011;59355;52.416;13.412;2023-04-30T08:56:02;7.83;;;4.10;;
2848;SDS011;59355;52.416;13.412;2023-04-30T08:58:27;4.87;;;3.63;;
2848;SDS011;59355;52.416;13.412;2023-04-30T09:00:53;7.53;;;3.50;;
2848;SDS011;59355;52.416;13.412;2023-04-30T09:03:18;5.70;;;4.00;;
2848;SDS011;59355;52.416;13.412;2023-04-30T09:05:45;5.40;;;3.03;;
2848;SDS011;59355;52.416;13.412;2023-04-30T09:08:15;6.40;;;3.87;;
2848;SDS011;59355;52.416;13.412;2023-04-30T09:10:41;5.13;;;3.37;;
2848;SDS011;59355;52.416;13.412;2023-04-30T09:13:07;8.77;;;4.30;;
2848;SDS011;59355;52.416;13.412;2023-04-30T09:15:33;7.63;;;3.63;;
2848;SDS011;59355;52.416;13.412;2023-04-30T09:18:13;8.93;;;4.30;;
2848;SDS011;59355;52.416;13.412;2023-04-30T09:20:58;10.00;;;4.67;;
2848;SDS011;59355;52.416;13.412;2023-04-30T09:23:27;9.13;;;4.13;;
2848;SDS011;59355;52.416;13.412;2023-04-30T09:25:53;7.67;;;4.23;;
2848;SDS011;59355;52.416;13.412;2023-04-30T09:28:18;6.73;;;4.23;;
2848;SDS011;59355;52.416;13.412;2023-04-30T09:30:48;6.07;;;4.33;;
2848;SDS011;59355;52.416;13.412;2023-04-30T09:33:14;7.03;;;4.40;;
2848;SDS011;59355;52.416;13.412;2023-04-30T09:35:39;7.73;;;4.73;;
2848;SDS011;59355;52.416;13.412;2023-04-30T09:38:07;7.30;;;4.40;;
2848;SDS011;59355;52.416;13.412;2023-04-30T09:40:49;5.73;;;4.50;;
2848;SDS011;59355;52.416;13.412;2023-04-30T09:43:15;4.23;;;3.37;;
2848;SDS011;59355;52.416;13.412;2023-04-30T09:45:44;5.50;;;3.47;;
2848;SDS011;59355;52.416;13.412;2023-04-30T09:48:11;9.23;;;3.47;;
2848;SDS011;59355;52.416;13.412;2023-04-30T09:50:39;5.30;;;3.90;;
2848;SDS011;59355;52.416;13.412;2023-04-30T09:53:06;4.43;;;3.00;;
2848;SDS011;59355;52.416;13.412;2023-04-30T09:55:35;6.30;;;3.80;;
2848;SDS011;59355;52.416;13.412;2023-04-30T09:58:07;9.03;;;3.80;;
2848;SDS011;59355;52.416;13.412;2023-04-30T10:00:34;5.50;;;3.13;;
2848;SDS011;59355;52.416;13.412;2023-04-30T10:03:04;6.00;;;3.27;;
2848;SDS011;59355;52.416;13.412;2023-04-30T10:05:33;7.20;;;3.20;;
2848;SDS011;59355;52.416;13.412;2023-04-30T10:08:01;4.40;;;3.40;;
2848;SDS011;59355;52.416;13.412;2023-04-30T10:10:27;5.30;;;3.37;;
2848;SDS011;59355;52.416;13.412;2023-04-30T10:12:53;5.83;;;3.10;;
2848;SDS011;59355;52.416;13.412;2023-04-30T10:15:24;3.40;;;2.73;;
2848;SDS011;59355;52.416;13.412;2023-04-30T10:17:56;4.93;;;3.10;;
2848;SDS011;59355;52.416;13.412;2023-04-30T10:20:25;5.33;;;3.00;;
2848;SDS011;59355;52.416;13.412;2023-04-30T10:22:50;3.43;;;3.00;;
2848;SDS011;59355;52.416;13.412;2023-04-30T10:25:17;4.40;;;3.27;;
2848;SDS011;59355;52.416;13.412;2023-04-30T10:27:43;7.20;;;3.87;;
2848;SDS011;59355;52.416;13.412;2023-04-30T10:30:09;4.73;;;3.17;;
2848;SDS011;59355;52.416;13.412;2023-04-30T10:32:47;3.40;;;3.00;;
2848;SDS011;59355;52.416;13.412;2023-04-30T10:35:34;4.40;;;2.83;;
2848;SDS011;59355;52.416;13.412;2023-04-30T10:38:09;7.83;;;3.30;;
2848;SDS011;59355;52.416;13.412;2023-04-30T10:40:40;6.20;;;3.07;;
2848;SDS011;59355;52.416;13.412;2023-04-30T10:43:10;5.10;;;3.50;;
2848;SDS011;59355;52.416;13.412;2023-04-30T10:45:36;6.20;;;3.60;;
2848;SDS011;59355;52.416;13.412;2023-04-30T10:48:05;7.10;;;3.67;;
2848;SDS011;59355;52.416;13.412;2023-04-30T10:50:31;4.50;;;2.93;;
2848;SDS011;59355;52.416;13.412;2023-04-30T10:53:02;11.03;;;3.27;;
2848;SDS011;59355;52.416;13.412;2023-04-30T10:55:29;4.57;;;3.53;;
2848;SDS011;59355;52.416;13.412;2023-04-30T10:57:56;4.40;;;3.63;;
2848;SDS011;59355;52.416;13.412;2023-04-30T11:00:28;3.90;;;2.90;;
2848;SDS011;59355;52.416;13.412;2023-04-30T11:02:55;5.00;;;3.50;;
2848;SDS011;59355;52.416;13.412;2023-04-30T11:05:33;4.00;;;3.47;;
2848;SDS011;59355;52.416;13.412;2023-04-30T11:08:02;4.53;;;3.60;;
2848;SDS011;59355;52.416;13.412;2023-04-30T11:10:31;5.87;;;3.30;;
2848;SDS011;59355;52.416;13.412;2023-04-30T11:12:57;7.97;;;4.40;;
2848;SDS011;59355;52.416;13.412;2023-04-30T11:15:24;3.83;;;3.20;;
2848;SDS011;59355;52.416;13.412;2023-04-30T11:17:50;5.90;;;3.80;;
2848;SDS011;59355;52.416;13.412;2023-04-30T11:20:22;6.07;;;3.60;;
2848;SDS011;59355;52.416;13.412;2023-04-30T11:23:06;6.40;;;3.27;;
2848;SDS011;59355;52.416;13.412;2023-04-30T11:25:38;5.63;;;3.37;;
2848;SDS011;59355;52.416;13.412;2023-04-30T11:28:05;6.67;;;4.20;;
2848;SDS011;59355;52.416;13.412;2023-04-30T11:30:31;7.80;;;3.97;;
2848;SDS011;59355;52.416;13.412;2023-04-30T11:32:58;5.77;;;4.13;;
2848;SDS011;59355;52.416;13.412;2023-04-30T11:35:23;5.60;;;3.87;;
2848;SDS011;59355;52.416;13.412;2023-04-30T11:37:49;8.30;;;3.73;;
2848;SDS011;59355;52.416;13.412;2023-04-30T11:40:19;5.40;;;3.87;;
2848;SDS011;59355;52.416;13.412;2023-04-30T11:42:44;5.83;;;3.87;;
2848;SDS011;59355;52.416;13.412;2023-04-30T11:45:15;4.70;;;3.77;;
2848;SDS011;59355;52.416;13.412;2023-04-30T11:47:45;6.10;;;3.30;;
2848;SDS011;59355;52.416;13.412;2023-04-30T11:50:12;6.60;;;4.17;;
2848;SDS011;59355;52.416;13.412;2023-04-30T11:52:39;7.10;;;3.40;;
2848;SDS011;59355;52.416;13.412;2023-04-30T11:55:06;7.83;;;4.30;;
2848;SDS011;59355;52.416;13.412;2023-04-30T11:57:40;6.80;;;3.90;;
2848;SDS011;59355;52.416;13.412;2023-04-30T12:00:06;4.20;;;3.80;;
2848;SDS011;59355;52.416;13.412;2023-04-30T12:02:33;9.07;;;4.20;;
2848;SDS011;59355;52.416;13.412;2023-04-30T12:04:59;9.30;;;3.73;;
2848;SDS011;59355;52.416;13.412;2023-04-30T12:07:24;4.73;;;3.30;;
2848;SDS011;59355;52.416;13.412;2023-04-30T12:09:53;5.67;;;4.20;;
2848;SDS011;59355;52.416;13.412;2023-04-30T12:12:29;10.60;;;3.60;;
2848;SDS011;59355;52.416;13.412;2023-04-30T12:14:54;8.13;;;3.80;;
2848;SDS011;59355;52.416;13.412;2023-04-30T12:17:33;5.27;;;3.70;;
2848;SDS011;59355;52.416;13.412;2023-04-30T12:19:58;6.13;;;4.00;;
2848;SDS011;59355;52.416;13.412;2023-04-30T12:22:24;7.17;;;3.77;;
2848;SDS011;59355;52.416;13.412;2023-04-30T12:24:49;5.27;;;4.13;;
2848;SDS011;59355;52.416;13.412;2023-04-30T12:27:14;8.37;;;3.90;;
2848;SDS011;59355;52.416;13.412;2023-04-30T12:29:42;6.93;;;3.47;;
2848;SDS011;59355;52.416;13.412;2023-04-30T12:32:12;4.83;;;3.40;;
2848;SDS011;59355;52.416;13.412;2023-04-30T12:34:40;8.20;;;3.60;;
2848;SDS011;59355;52.416;13.412;2023-04-30T12:37:06;9.50;;;3.70;;
2848;SDS011;59355;52.416;13.412;2023-04-30T12:39:34;4.00;;;3.47;;
2848;SDS011;59355;52.416;13.412;2023-04-30T12:41:59;4.23;;;3.43;;
2848;SDS011;59355;52.416;13.412;2023-04-30T12:44:25;8.00;;;4.13;;
2848;SDS011;59355;52.416;13.412;2023-04-30T12:46:55;7.93;;;5.10;;
2848;SDS011;59355;52.416;13.412;2023-04-30T12:49:28;5.17;;;3.57;;
2848;SDS011;59355;52.416;13.412;2023-04-30T12:52:02;5.07;;;4.30;;
2848;SDS011;59355;52.416;13.412;2023-04-30T12:54:29;5.40;;;3.80;;
2848;SDS011;59355;52.416;13.412;2023-04-30T12:57:00;7.07;;;3.77;;
2848;SDS011;59355;52.416;13.412;2023-04-30T12:59:27;7.20;;;4.10;;
2848;SDS011;59355;52.416;13.412;2023-04-30T13:01:53;5.60;;;4.00;;
2848;SDS011;59355;52.416;13.412;2023-04-30T13:04:19;5.53;;;3.50;;
2848;SDS011;59355;52.416;13.412;2023-04-30T13:06:44;4.97;;;3.60;;
2848;SDS011;59355;52.416;13.412;2023-04-30T13:09:10;9.00;;;4.43;;
2848;SDS011;59355;52.416;13.412;2023-04-30T13:11:36;6.80;;;3.83;;
2848;SDS011;59355;52.416;13.412;2023-04-30T13:14:01;8.10;;;4.47;;
2848;SDS011;59355;52.416;13.412;2023-04-30T13:16:27;8.00;;;4.30;;
2848;SDS011;59355;52.416;13.412;2023-04-30T13:18:52;8.23;;;3.77;;
2848;SDS011;59355;52.416;13.412;2023-04-30T13:21:18;6.50;;;4.10;;
2848;SDS011;59355;52.416;13.412;2023-04-30T13:23:44;6.10;;;3.70;;
2848;SDS011;59355;52.416;13.412;2023-04-30T13:26:09;8.67;;;4.73;;
2848;SDS011;59355;52.416;13.412;2023-04-30T13:28:35;6.67;;;3.80;;
2848;SDS011;59355;52.416;13.412;2023-04-30T13:31:00;7.97;;;5.07;;
2848;SDS011;59355;52.416;13.412;2023-04-30T13:33:26;5.53;;;4.40;;
2848;SDS011;59355;52.416;13.412;2023-04-30T13:35:51;4.63;;;4.07;;
2848;SDS011;59355;52.416;13.412;2023-04-30T13:38:17;5.73;;;3.90;;
2848;SDS011;59355;52.416;13.412;2023-04-30T13:40:42;4.40;;;3.90;;
2848;SDS011;59355;52.416;13.412;2023-04-30T13:43:07;6.63;;;4.00;;
2848;SDS011;59355;52.416;13.412;2023-04-30T13:45:33;6.90;;;3.50;;
2848;SDS011;59355;52.416;13.412;2023-04-30T13:47:58;7.40;;;3.83;;
2848;SDS011;59355;52.416;13.412;2023-04-30T13:50:23;8.20;;;3.40;;
2848;SDS011;59355;52.416;13.412;2023-04-30T13:52:52;5.20;;;3.10;;
2848;SDS011;59355;52.416;13.412;2023-04-30T13:55:17;5.23;;;3.70;;
2848;SDS011;59355;52.416;13.412;2023-04-30T13:57:48;4.53;;;2.97;;
2848;SDS011;59355;52.416;13.412;2023-04-30T14:00:13;5.80;;;3.53;;
2848;SDS011;59355;52.416;13.412;2023-04-30T14:02:39;4.47;;;3.20;;
2848;SDS011;59355;52.416;13.412;2023-04-30T14:05:06;4.70;;;4.00;;
2848;SDS011;59355;52.416;13.412;2023-04-30T14:07:34;4.40;;;3.40;;
2848;SDS011;59355;52.416;13.412;2023-04-30T14:10:01;8.93;;;4.37;;
2848;SDS011;59355;52.416;13.412;2023-04-30T14:12:26;7.17;;;3.90;;
2848;SDS011;59355;52.416;13.412;2023-04-30T14:14:54;5.60;;;3.30;;
2848;SDS011;59355;52.416;13.412;2023-04-30T14:17:19;5.30;;;3.73;;
2848;SDS011;59355;52.416;13.412;2023-04-30T14:19:46;5.13;;;3.50;;
2848;SDS011;59355;52.416;13.412;2023-04-30T14:22:11;4.97;;;3.80;;
2848;SDS011;59355;52.416;13.412;2023-04-30T14:24:36;8.57;;;3.40;;
2848;SDS011;59355;52.416;13.412;2023-04-30T14:27:02;5.80;;;3.40;;
2848;SDS011;59355;52.416;13.412;2023-04-30T14:29:28;7.67;;;3.60;;
2848;SDS011;59355;52.416;13.412;2023-04-30T14:31:53;5.00;;;3.77;;
2848;SDS011;59355;52.416;13.412;2023-04-30T14:34:18;8.80;;;4.60;;
2848;SDS011;59355;52.416;13.412;2023-04-30T14:36:44;6.10;;;3.97;;
2848;SDS011;59355;52.416;13.412;2023-04-30T14:39:09;4.70;;;4.20;;
2848;SDS011;59355;52.416;13.412;2023-04-30T14:41:35;5.50;;;3.93;;
2848;SDS011;59355;52.416;13.412;2023-04-30T14:44:00;4.00;;;3.13;;
2848;SDS011;59355;52.416;13.412;2023-04-30T14:46:26;3.97;;;3.33;;
2848;SDS011;59355;52.416;13.412;2023-04-30T14:48:51;6.50;;;3.37;;
2848;SDS011;59355;52.416;13.412;2023-04-30T14:51:18;6.10;;;3.60;;
2848;SDS011;59355;52.416;13.412;2023-04-30T14:53:43;6.57;;;3.87;;